createdAt,value
2022-10-10T00:01:45.982Z,99391.34
2022-10-10T00:06:49.314Z,99404.38
2022-10-10T00:11:53.995Z,99406.09
2022-10-10T00:16:57.158Z,99415.72
2022-10-10T00:22:00.465Z,99417.47
2022-10-10T00:27:05.197Z,99417.50
2022-10-10T00:32:08.235Z,99420.97
2022-10-10T00:37:11.547Z,99433.13
2022-10-10T00:42:17.297Z,99430.53
2022-10-10T00:47:21.268Z,99447.88
2022-10-10T00:52:24.698Z,99461.69
2022-10-10T00:57:29.543Z,99459.97
2022-10-10T01:02:32.779Z,99468.66
2022-10-10T01:07:36.536Z,99470.38
2022-10-10T01:12:57.527Z,99478.16
2022-10-10T01:18:09.565Z,99487.69
2022-10-10T01:23:39.967Z,99485.09
2022-10-10T01:28:51.962Z,99480.78
2022-10-10T01:34:05.221Z,99488.56
2022-10-10T01:39:15.304Z,99505.03
2022-10-10T01:44:22.503Z,99505.88
2022-10-10T01:49:30.913Z,99516.28
2022-10-10T01:54:41.209Z,99519.78
2022-10-10T02:00:04.400Z,99529.28
2022-10-10T02:05:19.387Z,99534.50
2022-10-10T02:10:27.329Z,99536.22
2022-10-10T02:15:39.798Z,99546.63
2022-10-10T02:20:45.205Z,99548.31
2022-10-10T02:25:53.654Z,99561.31
2022-10-10T02:31:03.537Z,99560.47
2022-10-10T02:36:07.703Z,99567.38
2022-10-10T02:41:16.271Z,99582.09
2022-10-10T02:46:21.252Z,99575.16
2022-10-10T02:51:28.504Z,99582.91
2022-10-10T02:56:33.949Z,99568.13
2022-10-10T03:01:38.748Z,99583.69
2022-10-10T03:06:41.878Z,99590.56
2022-10-10T03:11:45.164Z,99600.94
2022-10-10T03:16:49.833Z,99609.66
2022-10-10T03:21:53.109Z,99623.50
2022-10-10T03:26:56.475Z,99622.63
2022-10-10T03:32:01.233Z,99619.97
2022-10-10T03:37:04.325Z,99636.44
2022-10-10T03:42:07.705Z,99637.25
2022-10-10T03:47:12.404Z,99651.13
2022-10-10T03:52:15.774Z,99650.22
2022-10-10T03:57:19.178Z,99659.72
2022-10-10T04:02:24.096Z,99668.34
2022-10-10T04:07:27.114Z,99684.72
2022-10-10T04:12:30.465Z,99684.72
2022-10-10T04:17:35.206Z,99683.84
2022-10-10T04:22:38.572Z,99694.31
2022-10-10T04:27:43.726Z,99707.31
2022-10-10T04:32:48.632Z,99718.59
2022-10-10T04:37:52.517Z,99722.81
2022-10-10T04:42:56.344Z,99735.88
2022-10-10T04:48:01.191Z,99747.22
2022-10-10T04:53:04.318Z,99747.22
2022-10-10T04:58:07.716Z,99746.28
2022-10-10T05:03:13.129Z,99748.16
2022-10-10T05:08:16.551Z,99757.69
2022-10-10T05:13:19.889Z,99756.03
2022-10-10T05:18:24.983Z,99771.09
2022-10-10T05:23:28.295Z,99771.97
2022-10-10T05:28:32.062Z,99781.53
2022-10-10T05:33:36.893Z,99784.13
2022-10-10T05:38:40.488Z,99790.16
2022-10-10T05:43:43.822Z,99789.25
2022-10-10T05:48:48.600Z,99797.13
2022-10-10T05:53:51.763Z,99800.59
2022-10-10T05:58:55.202Z,99794.56
2022-10-10T06:03:59.980Z,99798.00
2022-10-10T06:09:03.116Z,99808.44
2022-10-10T06:14:06.534Z,99811.81
2022-10-10T06:19:14.824Z,99815.34
2022-10-10T06:24:18.743Z,99811.03
2022-10-10T06:29:22.065Z,99825.75
2022-10-10T06:34:26.836Z,99821.34
2022-10-10T06:39:30.365Z,99824.94
2022-10-10T06:44:33.739Z,99827.22
2022-10-10T06:49:38.563Z,99842.75
2022-10-10T06:54:42.035Z,99843.78
2022-10-10T06:59:45.447Z,99830.69
2022-10-10T07:04:50.339Z,99844.72
2022-10-10T07:09:53.668Z,99846.69
2022-10-10T07:14:57.120Z,99848.78
2022-10-10T07:20:01.844Z,99849.78
2022-10-10T07:25:07.318Z,99850.34
2022-10-10T07:30:11.514Z,99860.81
2022-10-10T07:35:16.841Z,99855.63
2022-10-10T07:40:20.331Z,99856.25
2022-10-10T07:45:23.731Z,99856.88
2022-10-10T07:50:28.538Z,99853.28
2022-10-10T07:55:32.050Z,99851.53
2022-10-10T08:00:36.638Z,99844.25
2022-10-10T08:05:42.828Z,99848.75
2022-10-10T08:10:46.324Z,99850.94
2022-10-10T08:15:52.379Z,99855.94
2022-10-10T08:21:08.521Z,99853.22
2022-10-10T08:26:13.655Z,99859.66
2022-10-10T08:31:18.840Z,99855.59
2022-10-10T08:36:25.139Z,99859.84
2022-10-10T08:41:39.459Z,99869.75
2022-10-10T08:46:46.024Z,99856.78
2022-10-10T08:51:57.057Z,99866.75
2022-10-10T08:57:05.527Z,99860.53
2022-10-10T09:02:50.062Z,99870.03
2022-10-10T09:08:13.606Z,99873.38
2022-10-10T09:13:26.885Z,99874.09
2022-10-10T09:18:59.590Z,99883.63
2022-10-10T09:24:11.426Z,99881.53
2022-10-10T09:29:29.279Z,99873.41
2022-10-10T09:34:38.108Z,99885.06
2022-10-10T09:39:50.209Z,99876.91
2022-10-10T09:44:53.858Z,99878.72
2022-10-10T09:49:57.742Z,99885.00
2022-10-10T09:55:06.031Z,99879.94
2022-10-10T10:00:34.194Z,99878.28
2022-10-10T10:05:37.739Z,99888.94
2022-10-10T10:10:42.707Z,99892.66
2022-10-10T10:15:50.126Z,99890.19
2022-10-10T10:20:56.532Z,99895.47
2022-10-10T10:26:03.181Z,99898.16
2022-10-10T10:31:07.010Z,99902.59
2022-10-10T10:36:24.927Z,99905.25
2022-10-10T10:41:36.959Z,99896.59
2022-10-10T10:46:51.517Z,99892.22
2022-10-10T10:52:22.951Z,99881.03
2022-10-10T10:57:51.116Z,99896.69
2022-10-10T11:03:35.115Z,99895.91
2022-10-10T11:08:49.474Z,99899.44
2022-10-10T11:14:01.095Z,99900.34
2022-10-10T11:19:17.207Z,99901.28
2022-10-10T11:24:30.411Z,99904.75
2022-10-10T11:29:49.904Z,99901.25
2022-10-10T11:35:04.331Z,99899.50
2022-10-10T11:40:25.170Z,99898.66
2022-10-10T11:45:34.551Z,99904.69
2022-10-10T11:50:41.700Z,99899.56
2022-10-10T11:55:50.551Z,99893.53
2022-10-10T12:00:59.414Z,99897.84
2022-10-10T12:06:10.103Z,99904.78
2022-10-10T12:11:19.786Z,99903.09
2022-10-10T12:16:30.692Z,99900.47
2022-10-10T12:21:54.456Z,99903.94
2022-10-10T12:27:30.567Z,99872.69
2022-10-10T12:32:44.047Z,99903.94
2022-10-10T12:38:09.981Z,99915.25
2022-10-10T12:43:24.570Z,99910.91
2022-10-10T12:48:29.558Z,99871.81
2022-10-10T12:53:35.442Z,99905.72
2022-10-10T12:58:40.920Z,99898.75
2022-10-10T13:03:48.502Z,99906.56
2022-10-10T13:08:52.937Z,99908.28
2022-10-10T13:13:57.880Z,99917.84
2022-10-10T13:19:02.727Z,99904.81
2022-10-10T13:24:07.183Z,99919.56
2022-10-10T13:29:23.912Z,99923.88
2022-10-10T13:34:31.381Z,99923.88
2022-10-10T13:39:38.471Z,99928.22
2022-10-10T13:44:50.318Z,99933.44
2022-10-10T13:49:59.023Z,99933.44
2022-10-10T13:55:16.530Z,99926.47
2022-10-10T14:00:23.113Z,99930.78
2022-10-10T14:05:30.674Z,99920.34
2022-10-10T14:10:37.124Z,99922.00
2022-10-10T14:15:46.369Z,99922.84
2022-10-10T14:20:51.950Z,99924.53
2022-10-10T14:25:55.376Z,99927.91
2022-10-10T14:30:58.743Z,99923.47
2022-10-10T14:36:03.663Z,99926.78
2022-10-10T14:41:07.433Z,99926.63
2022-10-10T14:46:18.253Z,99931.63
2022-10-10T14:51:34.158Z,99926.31
2022-10-10T14:57:07.254Z,99927.84
2022-10-10T15:02:02.767Z,99942.38
2022-10-10T15:07:13.571Z,99947.41
2022-10-10T15:12:18.012Z,99946.28
2022-10-10T15:17:21.613Z,99942.69
2022-10-10T15:22:27.577Z,99944.22
2022-10-10T15:27:32.842Z,99949.91
2022-10-10T15:32:40.226Z,99948.91
2022-10-10T15:37:45.617Z,99952.16
2022-10-10T15:42:49.724Z,99938.94
2022-10-10T15:47:53.085Z,99964.72
2022-10-10T15:52:57.822Z,99958.53
2022-10-10T15:58:03.493Z,99956.38
2022-10-10T16:03:07.235Z,99949.97
2022-10-10T16:08:12.581Z,99941.06
2022-10-10T16:13:15.930Z,99966.81
2022-10-10T16:18:19.667Z,99963.97
2022-10-10T16:23:24.877Z,99969.09
2022-10-10T16:28:28.586Z,99968.00
2022-10-10T16:33:33.686Z,99963.50
2022-10-10T16:38:39.191Z,99969.25
2022-10-10T16:43:44.440Z,99967.38
2022-10-10T16:48:48.519Z,99966.38
2022-10-10T16:53:53.427Z,99971.50
2022-10-10T16:58:56.497Z,99973.03
2022-10-10T17:04:01.366Z,99977.97
2022-10-10T17:09:08.050Z,99991.03
2022-10-10T17:14:11.901Z,99985.75
2022-10-10T17:19:15.465Z,99980.66
2022-10-10T17:24:20.275Z,99982.38
2022-10-10T17:29:23.823Z,99986.47
2022-10-10T17:34:27.488Z,99993.22
2022-10-10T17:39:32.463Z,99994.03
2022-10-10T17:44:42.016Z,99995.56
2022-10-10T17:49:49.868Z,99996.34
2022-10-10T17:54:55.617Z,99996.28
2022-10-10T18:00:00.025Z,100000.41
2022-10-10T18:05:03.493Z,100004.47
2022-10-10T18:10:09.316Z,100003.47
2022-10-10T18:15:12.767Z,100003.91
2022-10-10T18:20:16.702Z,99996.59
2022-10-10T18:25:25.051Z,99992.19
2022-10-10T18:30:29.966Z,99993.94
2022-10-10T18:35:33.363Z,99979.25
2022-10-10T18:40:38.122Z,99986.13
2022-10-10T18:45:41.525Z,99988.59
2022-10-10T18:50:44.849Z,99985.03
2022-10-10T18:55:57.253Z,99991.75
2022-10-10T19:01:01.413Z,99988.06
2022-10-10T19:06:06.170Z,99996.63
2022-10-10T19:11:20.310Z,99987.22
2022-10-10T19:16:23.729Z,99981.03
2022-10-10T19:21:28.415Z,99975.63
2022-10-10T19:26:34.204Z,99991.69
2022-10-10T19:31:39.034Z,99975.28
2022-10-10T19:36:42.309Z,99984.91
2022-10-10T19:41:47.202Z,99984.72
2022-10-10T19:46:50.570Z,99981.13
2022-10-10T19:51:54.753Z,99976.88
2022-10-10T19:56:59.494Z,99979.38
2022-10-10T20:02:03.068Z,99974.13
2022-10-10T20:07:06.472Z,99961.84
2022-10-10T20:12:11.569Z,99958.16
2022-10-10T20:17:15.245Z,99966.34
2022-10-10T20:22:18.667Z,99967.16
2022-10-10T20:27:25.724Z,99960.25
2022-10-10T20:32:32.296Z,99964.31
2022-10-10T20:37:35.820Z,99963.47
2022-10-10T20:42:40.532Z,99959.16
2022-10-10T20:47:43.793Z,99963.38
2022-10-10T20:52:47.167Z,99953.88
2022-10-10T20:57:51.942Z,99957.22
2022-10-10T21:02:55.918Z,99965.00
2022-10-10T21:07:59.249Z,99954.59
2022-10-10T21:13:03.989Z,99952.00
2022-10-10T21:18:07.480Z,99955.16
2022-10-10T21:23:10.832Z,99953.44
2022-10-10T21:28:15.721Z,99954.19
2022-10-10T21:33:20.132Z,99950.72
2022-10-10T21:38:23.780Z,99948.53
2022-10-10T21:43:28.494Z,99938.09
2022-10-10T21:48:31.847Z,99937.19
2022-10-10T21:53:35.278Z,99939.69
2022-10-10T21:58:41.756Z,99940.50
2022-10-10T22:03:45.879Z,99940.44
2022-10-10T22:08:50.785Z,99941.34
2022-10-10T22:13:55.820Z,99933.53
2022-10-10T22:18:59.726Z,99935.09
2022-10-10T22:24:06.325Z,99934.16
2022-10-10T22:29:11.084Z,99931.47
2022-10-10T22:34:15.277Z,99938.34
2022-10-10T22:39:18.854Z,99931.34
2022-10-10T22:44:23.535Z,99930.44
2022-10-10T22:49:27.469Z,99925.09
2022-10-10T22:54:30.785Z,99919.84
2022-10-10T22:59:35.550Z,99913.91
2022-10-10T23:04:38.887Z,99916.16
2022-10-10T23:09:42.343Z,99916.16
2022-10-10T23:14:52.740Z,99906.66
2022-10-10T23:19:56.014Z,99908.31
2022-10-10T23:24:59.468Z,99905.66
2022-10-10T23:30:05.742Z,99905.66
2022-10-10T23:35:10.200Z,99898.50
2022-10-10T23:40:13.545Z,99895.75
2022-10-10T23:45:18.318Z,99899.34
2022-10-10T23:50:21.627Z,99896.66
2022-10-10T23:55:25.100Z,99893.94
